To NAV CANADA Home Page Login to a new session Search on AWWS site Disclaimer Vers la page française équivalente Tips FAQ What's new on the site To the Forecasts and Observations / NOTAM section To "File a Flight Plan" website Publications and other links Update of the User's profile FIC Telephone Numbers My Weather Data Folder Route Weather Data Regional Weather Data Local Weather Data To the Forecasts and Observations / NOTAM section
Request Generated 11/13/2018 at 18:54:24 UTC . Weather information available at that time is displayed.

METAR/TAF

KIMMIRUT/NU    

METAR CYLC 131800Z 03011KT 15SM SCT120 BKN250 M16/M20 A3002 RMK AS3CI2 SLP175=
METAR CYLC 131700Z 02013KT 15SM SCT120 BKN250 M16/M20 A3004 RMK AS3CI2 SLP180=
METAR CYLC 131600Z 03005KT 350V060 15SM FEW140 SCT250 M17/M20 A3006 RMK AS2CI1 SLP188=

CYLC - No TAF is issued for this station

Your time UTC time
Weather data provided by Environment Canada and NAV CANADA